sensor_id;sensor_type;location;lat;lon;timestamp;P1;durP1;ratioP1;P2;durP2;ratioP2
22064;SDS011;11197;53.110;8.468;2023-05-23T00:01:54;10.52;;;6.90;;
22064;SDS011;11197;53.110;8.468;2023-05-23T00:04:22;9.27;;;6.47;;
22064;SDS011;11197;53.110;8.468;2023-05-23T00:06:51;8.70;;;6.60;;
22064;SDS011;11197;53.110;8.468;2023-05-23T00:09:17;8.80;;;6.00;;
22064;SDS011;11197;53.110;8.468;2023-05-23T00:11:43;8.43;;;6.40;;
22064;SDS011;11197;53.110;8.468;2023-05-23T00:14:12;9.30;;;6.15;;
22064;SDS011;11197;53.110;8.468;2023-05-23T00:16:39;7.83;;;6.03;;
22064;SDS011;11197;53.110;8.468;2023-05-23T00:19:07;7.93;;;6.50;;
22064;SDS011;11197;53.110;8.468;2023-05-23T00:21:34;9.55;;;6.57;;
22064;SDS011;11197;53.110;8.468;2023-05-23T00:24:00;8.65;;;6.50;;
22064;SDS011;11197;53.110;8.468;2023-05-23T00:26:29;9.18;;;6.35;;
22064;SDS011;11197;53.110;8.468;2023-05-23T00:28:55;9.18;;;6.60;;
22064;SDS011;11197;53.110;8.468;2023-05-23T00:31:21;8.85;;;6.55;;
22064;SDS011;11197;53.110;8.468;2023-05-23T00:33:47;8.27;;;6.60;;
22064;SDS011;11197;53.110;8.468;2023-05-23T00:36:13;9.25;;;7.00;;
22064;SDS011;11197;53.110;8.468;2023-05-23T00:38:39;9.50;;;7.28;;
22064;SDS011;11197;53.110;8.468;2023-05-23T00:41:05;8.73;;;6.90;;
22064;SDS011;11197;53.110;8.468;2023-05-23T00:43:31;8.93;;;7.07;;
22064;SDS011;11197;53.110;8.468;2023-05-23T00:45:57;9.63;;;7.68;;
22064;SDS011;11197;53.110;8.468;2023-05-23T00:48:24;9.98;;;7.65;;
22064;SDS011;11197;53.110;8.468;2023-05-23T00:50:51;9.98;;;8.02;;
22064;SDS011;11197;53.110;8.468;2023-05-23T00:53:17;11.75;;;8.60;;
22064;SDS011;11197;53.110;8.468;2023-05-23T00:55:44;12.32;;;8.25;;
22064;SDS011;11197;53.110;8.468;2023-05-23T00:58:10;12.57;;;8.45;;
22064;SDS011;11197;53.110;8.468;2023-05-23T01:00:39;12.05;;;8.95;;
22064;SDS011;11197;53.110;8.468;2023-05-23T01:03:05;11.82;;;8.52;;
22064;SDS011;11197;53.110;8.468;2023-05-23T01:05:31;11.20;;;8.82;;
22064;SDS011;11197;53.110;8.468;2023-05-23T01:07:57;12.93;;;9.70;;
22064;SDS011;11197;53.110;8.468;2023-05-23T01:10:24;14.90;;;9.85;;
22064;SDS011;11197;53.110;8.468;2023-05-23T01:15:41;11.38;;;9.43;;
22064;SDS011;11197;53.110;8.468;2023-05-23T01:18:36;14.38;;;9.75;;
22064;SDS011;11197;53.110;8.468;2023-05-23T01:21:08;12.07;;;8.68;;
22064;SDS011;11197;53.110;8.468;2023-05-23T01:29:33;15.57;;;10.82;;
22064;SDS011;11197;53.110;8.468;2023-05-23T01:32:13;15.63;;;11.10;;
22064;SDS011;11197;53.110;8.468;2023-05-23T01:34:40;13.95;;;10.95;;
22064;SDS011;11197;53.110;8.468;2023-05-23T01:37:08;14.40;;;11.15;;
22064;SDS011;11197;53.110;8.468;2023-05-23T01:39:36;15.02;;;11.23;;
22064;SDS011;11197;53.110;8.468;2023-05-23T01:42:03;13.60;;;11.70;;
22064;SDS011;11197;53.110;8.468;2023-05-23T01:44:31;14.70;;;10.82;;
22064;SDS011;11197;53.110;8.468;2023-05-23T01:46:59;16.27;;;11.70;;
22064;SDS011;11197;53.110;8.468;2023-05-23T01:49:30;15.75;;;12.05;;
22064;SDS011;11197;53.110;8.468;2023-05-23T01:51:58;15.00;;;12.35;;
22064;SDS011;11197;53.110;8.468;2023-05-23T01:54:25;16.05;;;11.52;;
22064;SDS011;11197;53.110;8.468;2023-05-23T01:56:54;16.15;;;12.30;;
22064;SDS011;11197;53.110;8.468;2023-05-23T01:59:22;17.77;;;13.45;;
22064;SDS011;11197;53.110;8.468;2023-05-23T02:01:48;17.02;;;13.05;;
22064;SDS011;11197;53.110;8.468;2023-05-23T02:04:14;17.50;;;13.18;;
22064;SDS011;11197;53.110;8.468;2023-05-23T02:06:42;20.40;;;14.70;;
22064;SDS011;11197;53.110;8.468;2023-05-23T02:09:11;18.83;;;14.25;;
22064;SDS011;11197;53.110;8.468;2023-05-23T02:11:37;23.42;;;16.02;;
22064;SDS011;11197;53.110;8.468;2023-05-23T02:14:03;19.58;;;14.40;;
22064;SDS011;11197;53.110;8.468;2023-05-23T02:16:29;20.52;;;14.82;;
22064;SDS011;11197;53.110;8.468;2023-05-23T02:18:55;22.83;;;16.67;;
22064;SDS011;11197;53.110;8.468;2023-05-23T02:21:21;23.80;;;16.70;;
22064;SDS011;11197;53.110;8.468;2023-05-23T02:23:48;25.50;;;16.70;;
22064;SDS011;11197;53.110;8.468;2023-05-23T02:26:15;25.98;;;17.20;;
22064;SDS011;11197;53.110;8.468;2023-05-23T02:28:42;30.23;;;20.00;;
22064;SDS011;11197;53.110;8.468;2023-05-23T02:31:08;31.17;;;18.73;;
22064;SDS011;11197;53.110;8.468;2023-05-23T02:33:34;34.90;;;21.30;;
22064;SDS011;11197;53.110;8.468;2023-05-23T02:36:00;37.22;;;23.17;;
22064;SDS011;11197;53.110;8.468;2023-05-23T02:38:26;37.83;;;22.80;;
22064;SDS011;11197;53.110;8.468;2023-05-23T02:40:52;40.10;;;23.70;;
22064;SDS011;11197;53.110;8.468;2023-05-23T02:43:18;40.03;;;23.98;;
22064;SDS011;11197;53.110;8.468;2023-05-23T02:45:44;44.78;;;24.67;;
22064;SDS011;11197;53.110;8.468;2023-05-23T02:48:10;48.97;;;26.25;;
22064;SDS011;11197;53.110;8.468;2023-05-23T02:50:36;45.22;;;25.33;;
22064;SDS011;11197;53.110;8.468;2023-05-23T02:53:02;44.42;;;24.67;;
22064;SDS011;11197;53.110;8.468;2023-05-23T02:55:28;43.85;;;25.35;;
22064;SDS011;11197;53.110;8.468;2023-05-23T02:57:56;46.30;;;26.08;;
22064;SDS011;11197;53.110;8.468;2023-05-23T03:00:25;41.85;;;24.45;;
22064;SDS011;11197;53.110;8.468;2023-05-23T03:02:54;42.10;;;24.27;;
22064;SDS011;11197;53.110;8.468;2023-05-23T03:05:21;42.40;;;23.15;;
22064;SDS011;11197;53.110;8.468;2023-05-23T03:07:47;42.08;;;23.55;;
22064;SDS011;11197;53.110;8.468;2023-05-23T03:10:13;38.88;;;23.25;;
22064;SDS011;11197;53.110;8.468;2023-05-23T03:12:39;46.90;;;23.50;;
22064;SDS011;11197;53.110;8.468;2023-05-23T03:15:06;42.17;;;22.73;;
22064;SDS011;11197;53.110;8.468;2023-05-23T03:17:34;42.15;;;22.77;;
22064;SDS011;11197;53.110;8.468;2023-05-23T03:20:01;42.30;;;22.25;;
22064;SDS011;11197;53.110;8.468;2023-05-23T03:22:27;34.60;;;20.60;;
22064;SDS011;11197;53.110;8.468;2023-05-23T03:24:53;35.67;;;20.50;;
22064;SDS011;11197;53.110;8.468;2023-05-23T03:27:20;39.13;;;20.67;;
22064;SDS011;11197;53.110;8.468;2023-05-23T03:29:46;33.20;;;19.65;;
22064;SDS011;11197;53.110;8.468;2023-05-23T03:32:12;35.15;;;19.60;;
22064;SDS011;11197;53.110;8.468;2023-05-23T03:34:38;36.95;;;19.17;;
22064;SDS011;11197;53.110;8.468;2023-05-23T03:37:04;34.20;;;19.08;;
22064;SDS011;11197;53.110;8.468;2023-05-23T03:39:30;34.53;;;18.58;;
22064;SDS011;11197;53.110;8.468;2023-05-23T03:41:56;37.38;;;18.27;;
22064;SDS011;11197;53.110;8.468;2023-05-23T03:44:22;39.10;;;17.63;;
22064;SDS011;11197;53.110;8.468;2023-05-23T03:46:47;31.92;;;18.50;;
22064;SDS011;11197;53.110;8.468;2023-05-23T03:49:15;28.90;;;18.17;;
22064;SDS011;11197;53.110;8.468;2023-05-23T03:51:41;35.22;;;18.23;;
22064;SDS011;11197;53.110;8.468;2023-05-23T03:54:06;35.13;;;17.42;;
22064;SDS011;11197;53.110;8.468;2023-05-23T03:56:32;31.95;;;17.50;;
22064;SDS011;11197;53.110;8.468;2023-05-23T03:58:58;32.47;;;16.13;;
22064;SDS011;11197;53.110;8.468;2023-05-23T04:01:27;27.67;;;15.80;;
22064;SDS011;11197;53.110;8.468;2023-05-23T04:04:04;23.63;;;13.88;;
22064;SDS011;11197;53.110;8.468;2023-05-23T04:06:34;26.60;;;14.15;;
22064;SDS011;11197;53.110;8.468;2023-05-23T04:08:59;24.35;;;13.60;;
22064;SDS011;11197;53.110;8.468;2023-05-23T04:11:27;24.48;;;14.20;;
22064;SDS011;11197;53.110;8.468;2023-05-23T04:13:53;19.15;;;12.35;;
22064;SDS011;11197;53.110;8.468;2023-05-23T04:16:19;17.63;;;11.85;;
22064;SDS011;11197;53.110;8.468;2023-05-23T04:18:47;18.92;;;12.00;;
22064;SDS011;11197;53.110;8.468;2023-05-23T04:21:12;17.25;;;10.95;;
22064;SDS011;11197;53.110;8.468;2023-05-23T04:23:47;16.38;;;10.50;;
22064;SDS011;11197;53.110;8.468;2023-05-23T04:26:13;14.95;;;10.35;;
22064;SDS011;11197;53.110;8.468;2023-05-23T04:28:46;14.15;;;10.23;;
22064;SDS011;11197;53.110;8.468;2023-05-23T04:31:13;13.82;;;9.63;;
22064;SDS011;11197;53.110;8.468;2023-05-23T04:33:40;13.57;;;9.45;;
22064;SDS011;11197;53.110;8.468;2023-05-23T04:36:07;13.10;;;9.57;;
22064;SDS011;11197;53.110;8.468;2023-05-23T04:38:35;11.90;;;9.57;;
22064;SDS011;11197;53.110;8.468;2023-05-23T04:41:06;12.50;;;9.30;;
22064;SDS011;11197;53.110;8.468;2023-05-23T04:43:36;14.80;;;9.50;;
22064;SDS011;11197;53.110;8.468;2023-05-23T04:46:44;11.15;;;8.93;;
22064;SDS011;11197;53.110;8.468;2023-05-23T04:49:21;13.27;;;9.93;;
22064;SDS011;11197;53.110;8.468;2023-05-23T04:51:47;11.45;;;9.07;;
22064;SDS011;11197;53.110;8.468;2023-05-23T04:54:24;12.73;;;9.15;;
22064;SDS011;11197;53.110;8.468;2023-05-23T04:56:52;12.60;;;8.82;;
22064;SDS011;11197;53.110;8.468;2023-05-23T04:59:19;9.13;;;7.20;;
22064;SDS011;11197;53.110;8.468;2023-05-23T05:01:45;10.90;;;7.78;;
22064;SDS011;11197;53.110;8.468;2023-05-23T05:04:11;10.07;;;7.43;;
22064;SDS011;11197;53.110;8.468;2023-05-23T05:06:39;9.18;;;6.32;;
22064;SDS011;11197;53.110;8.468;2023-05-23T05:09:07;9.75;;;6.78;;
22064;SDS011;11197;53.110;8.468;2023-05-23T05:11:34;10.05;;;6.60;;
22064;SDS011;11197;53.110;8.468;2023-05-23T05:13:59;9.82;;;6.25;;
22064;SDS011;11197;53.110;8.468;2023-05-23T05:16:26;10.88;;;7.15;;
22064;SDS011;11197;53.110;8.468;2023-05-23T05:18:52;12.73;;;7.57;;
22064;SDS011;11197;53.110;8.468;2023-05-23T05:21:19;13.73;;;7.85;;
22064;SDS011;11197;53.110;8.468;2023-05-23T05:23:45;14.70;;;8.40;;
22064;SDS011;11197;53.110;8.468;2023-05-23T05:26:13;13.85;;;8.68;;
22064;SDS011;11197;53.110;8.468;2023-05-23T05:28:39;18.17;;;9.68;;
22064;SDS011;11197;53.110;8.468;2023-05-23T05:31:05;22.27;;;9.15;;
22064;SDS011;11197;53.110;8.468;2023-05-23T05:33:34;17.38;;;9.45;;
22064;SDS011;11197;53.110;8.468;2023-05-23T05:36:18;16.90;;;8.20;;
22064;SDS011;11197;53.110;8.468;2023-05-23T05:38:45;20.27;;;8.55;;
22064;SDS011;11197;53.110;8.468;2023-05-23T05:41:11;18.60;;;8.70;;
22064;SDS011;11197;53.110;8.468;2023-05-23T05:43:47;19.08;;;8.35;;
22064;SDS011;11197;53.110;8.468;2023-05-23T05:46:13;16.60;;;7.22;;
22064;SDS011;11197;53.110;8.468;2023-05-23T05:48:38;15.85;;;7.38;;
22064;SDS011;11197;53.110;8.468;2023-05-23T05:51:09;16.10;;;7.05;;
22064;SDS011;11197;53.110;8.468;2023-05-23T05:53:35;14.82;;;6.65;;
22064;SDS011;11197;53.110;8.468;2023-05-23T05:56:01;14.85;;;6.38;;
22064;SDS011;11197;53.110;8.468;2023-05-23T05:58:28;13.32;;;6.50;;
22064;SDS011;11197;53.110;8.468;2023-05-23T06:01:00;15.95;;;6.20;;
22064;SDS011;11197;53.110;8.468;2023-05-23T06:03:26;14.38;;;6.30;;
22064;SDS011;11197;53.110;8.468;2023-05-23T06:05:53;17.63;;;7.03;;
22064;SDS011;11197;53.110;8.468;2023-05-23T06:08:21;14.02;;;6.28;;
22064;SDS011;11197;53.110;8.468;2023-05-23T06:10:47;17.88;;;6.68;;
22064;SDS011;11197;53.110;8.468;2023-05-23T06:13:13;18.55;;;6.63;;
22064;SDS011;11197;53.110;8.468;2023-05-23T06:15:42;14.38;;;6.50;;
22064;SDS011;11197;53.110;8.468;2023-05-23T06:18:08;19.98;;;6.35;;
22064;SDS011;11197;53.110;8.468;2023-05-23T06:20:35;16.33;;;6.00;;
22064;SDS011;11197;53.110;8.468;2023-05-23T06:23:04;16.02;;;6.22;;
22064;SDS011;11197;53.110;8.468;2023-05-23T06:25:30;15.85;;;5.18;;
22064;SDS011;11197;53.110;8.468;2023-05-23T06:27:57;13.30;;;4.80;;
22064;SDS011;11197;53.110;8.468;2023-05-23T06:30:23;12.30;;;4.47;;
22064;SDS011;11197;53.110;8.468;2023-05-23T06:32:50;10.88;;;4.20;;
22064;SDS011;11197;53.110;8.468;2023-05-23T06:35:17;12.15;;;3.92;;
22064;SDS011;11197;53.110;8.468;2023-05-23T06:37:42;14.95;;;4.55;;
22064;SDS011;11197;53.110;8.468;2023-05-23T06:40:11;16.45;;;4.43;;
22064;SDS011;11197;53.110;8.468;2023-05-23T06:42:40;16.30;;;4.38;;
22064;SDS011;11197;53.110;8.468;2023-05-23T06:45:29;15.63;;;4.43;;
22064;SDS011;11197;53.110;8.468;2023-05-23T06:47:54;20.75;;;4.75;;
22064;SDS011;11197;53.110;8.468;2023-05-23T06:50:20;19.25;;;4.55;;
22064;SDS011;11197;53.110;8.468;2023-05-23T06:52:49;16.40;;;3.78;;
22064;SDS011;11197;53.110;8.468;2023-05-23T06:55:15;16.65;;;4.07;;
22064;SDS011;11197;53.110;8.468;2023-05-23T06:57:44;15.48;;;4.05;;
22064;SDS011;11197;53.110;8.468;2023-05-23T07:00:11;15.77;;;3.35;;
22064;SDS011;11197;53.110;8.468;2023-05-23T07:02:55;14.63;;;3.85;;
22064;SDS011;11197;53.110;8.468;2023-05-23T07:05:21;15.65;;;3.67;;
22064;SDS011;11197;53.110;8.468;2023-05-23T07:07:52;13.02;;;4.18;;
22064;SDS011;11197;53.110;8.468;2023-05-23T07:10:19;13.32;;;3.80;;
22064;SDS011;11197;53.110;8.468;2023-05-23T07:12:47;16.33;;;4.25;;
22064;SDS011;11197;53.110;8.468;2023-05-23T07:15:14;16.98;;;4.53;;
22064;SDS011;11197;53.110;8.468;2023-05-23T07:17:52;15.10;;;3.90;;
22064;SDS011;11197;53.110;8.468;2023-05-23T07:20:19;9.27;;;3.08;;
22064;SDS011;11197;53.110;8.468;2023-05-23T07:22:46;10.63;;;3.58;;
22064;SDS011;11197;53.110;8.468;2023-05-23T07:25:13;7.32;;;2.75;;
22064;SDS011;11197;53.110;8.468;2023-05-23T07:27:39;11.25;;;3.95;;
22064;SDS011;11197;53.110;8.468;2023-05-23T07:30:05;13.25;;;4.38;;
22064;SDS011;11197;53.110;8.468;2023-05-23T07:32:35;14.40;;;5.07;;
22064;SDS011;11197;53.110;8.468;2023-05-23T07:35:01;14.60;;;5.07;;
22064;SDS011;11197;53.110;8.468;2023-05-23T07:37:27;16.83;;;4.55;;
22064;SDS011;11197;53.110;8.468;2023-05-23T07:39:53;10.25;;;4.32;;
22064;SDS011;11197;53.110;8.468;2023-05-23T07:42:19;13.57;;;4.45;;
22064;SDS011;11197;53.110;8.468;2023-05-23T07:44:48;18.95;;;5.00;;
22064;SDS011;11197;53.110;8.468;2023-05-23T07:47:14;20.10;;;5.35;;
22064;SDS011;11197;53.110;8.468;2023-05-23T07:49:40;18.35;;;5.50;;
22064;SDS011;11197;53.110;8.468;2023-05-23T07:52:07;19.95;;;5.13;;
22064;SDS011;11197;53.110;8.468;2023-05-23T07:54:34;19.48;;;5.13;;
22064;SDS011;11197;53.110;8.468;2023-05-23T07:57:01;16.15;;;4.57;;
22064;SDS011;11197;53.110;8.468;2023-05-23T07:59:27;12.60;;;4.45;;
22064;SDS011;11197;53.110;8.468;2023-05-23T08:01:54;19.77;;;4.15;;
22064;SDS011;11197;53.110;8.468;2023-05-23T08:04:22;22.38;;;4.53;;
22064;SDS011;11197;53.110;8.468;2023-05-23T08:06:52;20.77;;;4.60;;
22064;SDS011;11197;53.110;8.468;2023-05-23T08:09:23;16.58;;;4.70;;
22064;SDS011;11197;53.110;8.468;2023-05-23T08:11:56;19.42;;;4.60;;
22064;SDS011;11197;53.110;8.468;2023-05-23T08:14:23;14.90;;;4.72;;
22064;SDS011;11197;53.110;8.468;2023-05-23T08:17:00;15.38;;;4.25;;
22064;SDS011;11197;53.110;8.468;2023-05-23T08:19:26;14.80;;;4.30;;
22064;SDS011;11197;53.110;8.468;2023-05-23T08:21:53;15.02;;;4.28;;
22064;SDS011;11197;53.110;8.468;2023-05-23T08:24:19;15.98;;;4.50;;
22064;SDS011;11197;53.110;8.468;2023-05-23T08:26:46;16.30;;;4.20;;
22064;SDS011;11197;53.110;8.468;2023-05-23T08:29:14;12.27;;;3.83;;
22064;SDS011;11197;53.110;8.468;2023-05-23T08:31:41;12.93;;;4.07;;
22064;SDS011;11197;53.110;8.468;2023-05-23T08:34:08;14.07;;;3.70;;
22064;SDS011;11197;53.110;8.468;2023-05-23T08:36:37;13.20;;;3.60;;
22064;SDS011;11197;53.110;8.468;2023-05-23T08:39:07;23.30;;;4.07;;
22064;SDS011;11197;53.110;8.468;2023-05-23T08:41:44;17.67;;;4.32;;
22064;SDS011;11197;53.110;8.468;2023-05-23T08:44:11;15.93;;;4.32;;
22064;SDS011;11197;53.110;8.468;2023-05-23T08:46:45;17.33;;;4.40;;
22064;SDS011;11197;53.110;8.468;2023-05-23T08:49:53;16.25;;;4.32;;
22064;SDS011;11197;53.110;8.468;2023-05-23T08:52:21;16.63;;;4.60;;
22064;SDS011;11197;53.110;8.468;2023-05-23T08:57:18;16.88;;;4.10;;
22064;SDS011;11197;53.110;8.468;2023-05-23T08:59:52;19.52;;;4.40;;
22064;SDS011;11197;53.110;8.468;2023-05-23T09:02:21;18.23;;;4.35;;
22064;SDS011;11197;53.110;8.468;2023-05-23T09:04:56;12.35;;;4.15;;
22064;SDS011;11197;53.110;8.468;2023-05-23T09:07:24;12.55;;;3.83;;
22064;SDS011;11197;53.110;8.468;2023-05-23T09:09:55;13.07;;;3.75;;
22064;SDS011;11197;53.110;8.468;2023-05-23T09:12:21;17.58;;;4.05;;
22064;SDS011;11197;53.110;8.468;2023-05-23T09:14:48;15.68;;;3.88;;
22064;SDS011;11197;53.110;8.468;2023-05-23T09:17:16;13.77;;;3.75;;
22064;SDS011;11197;53.110;8.468;2023-05-23T09:19:44;16.42;;;3.40;;
22064;SDS011;11197;53.110;8.468;2023-05-23T09:22:25;18.35;;;4.00;;
22064;SDS011;11197;53.110;8.468;2023-05-23T09:24:59;12.30;;;3.47;;
22064;SDS011;11197;53.110;8.468;2023-05-23T09:27:26;15.05;;;3.47;;
22064;SDS011;11197;53.110;8.468;2023-05-23T09:29:52;15.98;;;3.60;;
22064;SDS011;11197;53.110;8.468;2023-05-23T09:32:19;12.90;;;3.70;;
22064;SDS011;11197;53.110;8.468;2023-05-23T09:34:58;18.05;;;3.72;;
22064;SDS011;11197;53.110;8.468;2023-05-23T09:37:28;14.73;;;3.70;;
22064;SDS011;11197;53.110;8.468;2023-05-23T09:39:59;13.52;;;3.22;;
22064;SDS011;11197;53.110;8.468;2023-05-23T09:42:47;16.20;;;3.35;;
22064;SDS011;11197;53.110;8.468;2023-05-23T09:45:13;11.68;;;3.08;;
22064;SDS011;11197;53.110;8.468;2023-05-23T09:47:52;15.48;;;3.33;;
22064;SDS011;11197;53.110;8.468;2023-05-23T09:50:19;15.57;;;3.38;;
22064;SDS011;11197;53.110;8.468;2023-05-23T09:52:45;13.13;;;3.25;;
22064;SDS011;11197;53.110;8.468;2023-05-23T09:55:12;14.27;;;3.33;;
22064;SDS011;11197;53.110;8.468;2023-05-23T09:57:42;16.15;;;3.80;;
22064;SDS011;11197;53.110;8.468;2023-05-23T10:00:09;15.75;;;3.33;;
22064;SDS011;11197;53.110;8.468;2023-05-23T10:05:17;17.20;;;3.42;;
22064;SDS011;11197;53.110;8.468;2023-05-23T10:08:08;13.65;;;3.13;;
22064;SDS011;11197;53.110;8.468;2023-05-23T10:13:44;15.77;;;3.30;;
22064;SDS011;11197;53.110;8.468;2023-05-23T10:16:22;17.50;;;3.63;;
22064;SDS011;11197;53.110;8.468;2023-05-23T10:19:00;19.48;;;3.90;;
22064;SDS011;11197;53.110;8.468;2023-05-23T10:22:05;12.80;;;3.58;;
22064;SDS011;11197;53.110;8.468;2023-05-23T10:24:25;15.60;;;3.50;;
22064;SDS011;11197;53.110;8.468;2023-05-23T10:26:52;14.90;;;3.70;;
22064;SDS011;11197;53.110;8.468;2023-05-23T10:29:19;19.55;;;3.83;;
22064;SDS011;11197;53.110;8.468;2023-05-23T10:31:49;16.52;;;3.67;;
22064;SDS011;11197;53.110;8.468;2023-05-23T10:37:28;18.42;;;3.70;;
22064;SDS011;11197;53.110;8.468;2023-05-23T10:46:13;22.05;;;4.32;;
22064;SDS011;11197;53.110;8.468;2023-05-23T10:48:40;15.55;;;3.78;;
22064;SDS011;11197;53.110;8.468;2023-05-23T10:51:11;19.27;;;4.47;;
22064;SDS011;11197;53.110;8.468;2023-05-23T10:53:39;16.58;;;4.30;;
22064;SDS011;11197;53.110;8.468;2023-05-23T10:56:07;16.80;;;4.15;;
22064;SDS011;11197;53.110;8.468;2023-05-23T10:58:36;14.25;;;3.88;;
22064;SDS011;11197;53.110;8.468;2023-05-23T11:01:12;14.75;;;3.72;;
22064;SDS011;11197;53.110;8.468;2023-05-23T11:09:00;15.88;;;4.15;;
22064;SDS011;11197;53.110;8.468;2023-05-23T11:14:16;15.03;;;4.57;;
22064;SDS011;11197;53.110;8.468;2023-05-23T11:16:43;17.95;;;4.25;;
22064;SDS011;11197;53.110;8.468;2023-05-23T11:21:45;14.38;;;3.70;;
22064;SDS011;11197;53.110;8.468;2023-05-23T11:24:14;17.20;;;4.55;;
22064;SDS011;11197;53.110;8.468;2023-05-23T11:26:41;16.77;;;3.95;;
22064;SDS011;11197;53.110;8.468;2023-05-23T11:29:24;18.13;;;3.83;;
22064;SDS011;11197;53.110;8.468;2023-05-23T11:31:56;16.33;;;3.95;;
22064;SDS011;11197;53.110;8.468;2023-05-23T11:34:25;12.77;;;3.58;;
22064;SDS011;11197;53.110;8.468;2023-05-23T11:36:52;18.10;;;3.78;;
22064;SDS011;11197;53.110;8.468;2023-05-23T11:39:19;15.20;;;3.75;;
22064;SDS011;11197;53.110;8.468;2023-05-23T11:42:01;15.27;;;3.70;;
22064;SDS011;11197;53.110;8.468;2023-05-23T11:44:28;13.68;;;3.90;;
22064;SDS011;11197;53.110;8.468;2023-05-23T11:47:04;14.48;;;3.50;;
22064;SDS011;11197;53.110;8.468;2023-05-23T11:49:33;14.85;;;3.53;;
22064;SDS011;11197;53.110;8.468;2023-05-23T11:52:02;13.25;;;3.13;;
22064;SDS011;11197;53.110;8.468;2023-05-23T11:54:29;13.82;;;3.42;;
22064;SDS011;11197;53.110;8.468;2023-05-23T11:56:55;13.40;;;3.35;;
22064;SDS011;11197;53.110;8.468;2023-05-23T11:59:22;15.80;;;3.63;;
22064;SDS011;11197;53.110;8.468;2023-05-23T12:01:50;17.27;;;3.38;;
22064;SDS011;11197;53.110;8.468;2023-05-23T12:04:17;16.98;;;3.75;;
22064;SDS011;11197;53.110;8.468;2023-05-23T12:06:50;15.88;;;3.30;;
22064;SDS011;11197;53.110;8.468;2023-05-23T12:09:15;13.18;;;3.72;;
22064;SDS011;11197;53.110;8.468;2023-05-23T12:11:43;18.33;;;4.18;;
22064;SDS011;11197;53.110;8.468;2023-05-23T12:14:13;18.25;;;3.88;;
22064;SDS011;11197;53.110;8.468;2023-05-23T12:16:41;16.40;;;3.53;;
22064;SDS011;11197;53.110;8.468;2023-05-23T12:19:09;12.48;;;3.50;;
22064;SDS011;11197;53.110;8.468;2023-05-23T12:21:54;12.50;;;3.42;;
22064;SDS011;11197;53.110;8.468;2023-05-23T12:24:20;13.90;;;3.10;;
22064;SDS011;11197;53.110;8.468;2023-05-23T12:26:57;19.50;;;3.20;;
22064;SDS011;11197;53.110;8.468;2023-05-23T12:29:28;17.23;;;3.38;;
22064;SDS011;11197;53.110;8.468;2023-05-23T12:31:59;16.15;;;3.30;;
22064;SDS011;11197;53.110;8.468;2023-05-23T12:34:26;13.65;;;3.47;;
22064;SDS011;11197;53.110;8.468;2023-05-23T12:36:56;11.60;;;3.00;;
22064;SDS011;11197;53.110;8.468;2023-05-23T12:39:23;15.50;;;3.40;;
22064;SDS011;11197;53.110;8.468;2023-05-23T12:41:53;14.60;;;2.92;;
22064;SDS011;11197;53.110;8.468;2023-05-23T12:44:35;17.23;;;4.05;;
22064;SDS011;11197;53.110;8.468;2023-05-23T12:47:04;17.15;;;3.40;;
22064;SDS011;11197;53.110;8.468;2023-05-23T12:49:30;17.40;;;3.42;;
22064;SDS011;11197;53.110;8.468;2023-05-23T12:51:56;18.20;;;3.35;;
22064;SDS011;11197;53.110;8.468;2023-05-23T12:54:25;16.05;;;3.13;;
22064;SDS011;11197;53.110;8.468;2023-05-23T12:56:50;12.40;;;2.97;;
22064;SDS011;11197;53.110;8.468;2023-05-23T12:59:16;13.30;;;3.17;;
22064;SDS011;11197;53.110;8.468;2023-05-23T13:01:42;17.38;;;3.50;;
22064;SDS011;11197;53.110;8.468;2023-05-23T13:04:08;14.98;;;3.33;;
22064;SDS011;11197;53.110;8.468;2023-05-23T13:06:34;15.93;;;3.25;;
22064;SDS011;11197;53.110;8.468;2023-05-23T13:08:59;13.73;;;3.35;;
22064;SDS011;11197;53.110;8.468;2023-05-23T13:11:26;11.05;;;2.60;;
22064;SDS011;11197;53.110;8.468;2023-05-23T13:13:52;14.95;;;3.13;;
22064;SDS011;11197;53.110;8.468;2023-05-23T13:16:18;14.40;;;3.35;;
22064;SDS011;11197;53.110;8.468;2023-05-23T13:18:43;15.50;;;3.45;;
22064;SDS011;11197;53.110;8.468;2023-05-23T13:21:09;17.73;;;4.00;;
22064;SDS011;11197;53.110;8.468;2023-05-23T13:23:35;11.40;;;2.83;;
22064;SDS011;11197;53.110;8.468;2023-05-23T13:26:03;14.40;;;2.97;;
22064;SDS011;11197;53.110;8.468;2023-05-23T13:28:30;14.05;;;3.45;;
22064;SDS011;11197;53.110;8.468;2023-05-23T13:30:57;12.15;;;3.22;;
22064;SDS011;11197;53.110;8.468;2023-05-23T13:33:23;16.58;;;3.28;;
22064;SDS011;11197;53.110;8.468;2023-05-23T13:35:52;15.48;;;3.03;;
22064;SDS011;11197;53.110;8.468;2023-05-23T13:38:19;9.77;;;2.75;;
22064;SDS011;11197;53.110;8.468;2023-05-23T13:40:45;16.20;;;3.05;;
22064;SDS011;11197;53.110;8.468;2023-05-23T13:43:11;12.60;;;3.08;;
22064;SDS011;11197;53.110;8.468;2023-05-23T13:45:37;15.70;;;3.42;;
22064;SDS011;11197;53.110;8.468;2023-05-23T13:48:03;13.25;;;3.00;;
22064;SDS011;11197;53.110;8.468;2023-05-23T13:50:28;14.50;;;2.90;;
22064;SDS011;11197;53.110;8.468;2023-05-23T13:52:54;14.73;;;3.25;;
22064;SDS011;11197;53.110;8.468;2023-05-23T13:55:20;12.80;;;3.08;;
22064;SDS011;11197;53.110;8.468;2023-05-23T13:57:46;15.57;;;3.25;;
22064;SDS011;11197;53.110;8.468;2023-05-23T14:00:12;12.60;;;2.75;;
22064;SDS011;11197;53.110;8.468;2023-05-23T14:02:38;16.67;;;3.10;;
22064;SDS011;11197;53.110;8.468;2023-05-23T14:05:04;13.00;;;2.85;;
22064;SDS011;11197;53.110;8.468;2023-05-23T14:07:31;17.88;;;2.88;;
22064;SDS011;11197;53.110;8.468;2023-05-23T14:09:57;13.27;;;3.00;;
22064;SDS011;11197;53.110;8.468;2023-05-23T14:12:24;12.70;;;2.60;;
22064;SDS011;11197;53.110;8.468;2023-05-23T14:14:50;10.70;;;2.63;;
22064;SDS011;11197;53.110;8.468;2023-05-23T14:17:16;12.30;;;2.92;;
22064;SDS011;11197;53.110;8.468;2023-05-23T14:19:42;13.70;;;2.80;;
22064;SDS011;11197;53.110;8.468;2023-05-23T14:22:09;12.77;;;2.90;;
22064;SDS011;11197;53.110;8.468;2023-05-23T14:24:35;16.25;;;3.20;;
22064;SDS011;11197;53.110;8.468;2023-05-23T14:27:01;11.27;;;2.47;;
22064;SDS011;11197;53.110;8.468;2023-05-23T14:29:27;13.63;;;2.45;;
22064;SDS011;11197;53.110;8.468;2023-05-23T14:31:53;15.18;;;2.60;;
22064;SDS011;11197;53.110;8.468;2023-05-23T14:34:22;13.77;;;2.60;;
22064;SDS011;11197;53.110;8.468;2023-05-23T14:36:48;12.85;;;2.72;;
22064;SDS011;11197;53.110;8.468;2023-05-23T14:39:14;13.30;;;2.58;;
22064;SDS011;11197;53.110;8.468;2023-05-23T14:41:40;16.08;;;2.75;;
22064;SDS011;11197;53.110;8.468;2023-05-23T14:44:05;11.45;;;2.70;;
22064;SDS011;11197;53.110;8.468;2023-05-23T14:46:31;13.95;;;2.67;;
22064;SDS011;11197;53.110;8.468;2023-05-23T14:48:57;13.90;;;2.80;;
22064;SDS011;11197;53.110;8.468;2023-05-23T14:51:23;13.98;;;2.80;;
22064;SDS011;11197;53.110;8.468;2023-05-23T14:53:48;9.98;;;2.40;;
22064;SDS011;11197;53.110;8.468;2023-05-23T14:56:14;10.07;;;2.40;;
22064;SDS011;11197;53.110;8.468;2023-05-23T14:58:40;13.25;;;2.50;;
22064;SDS011;11197;53.110;8.468;2023-05-23T15:01:10;18.08;;;3.03;;
22064;SDS011;11197;53.110;8.468;2023-05-23T15:03:37;13.70;;;2.60;;
22064;SDS011;11197;53.110;8.468;2023-05-23T15:06:03;11.85;;;2.40;;
22064;SDS011;11197;53.110;8.468;2023-05-23T15:08:30;13.57;;;2.45;;
22064;SDS011;11197;53.110;8.468;2023-05-23T15:10:56;14.50;;;2.60;;
22064;SDS011;11197;53.110;8.468;2023-05-23T15:13:22;12.48;;;2.45;;
22064;SDS011;11197;53.110;8.468;2023-05-23T15:15:48;13.15;;;2.50;;
22064;SDS011;11197;53.110;8.468;2023-05-23T15:18:13;12.77;;;2.47;;